Terminal Aerodrome Forecast
Issued by NWS Wichita, KS

Home | Current Version | Previous Version | Text Only | Print | Product List | Glossary Off
Versions: 1 2 3 4 5 6 7 8 9 10 11 12 13 14 15 16 17 18 19 20 21 22

000
FTUS43 KICT 230713 AAA
TAFICT
TAF AMD
KICT 230713Z 2307/2406 17015G22KT 2SM -DZ BR BKN004 OVC006
     FM231500 25012KT 6SM BR OVC008
     FM231700 35023G30KT P6SM OVC015
     FM240200 34020G28KT P6SM OVC060=

USA.gov is the U.S. government's official web portal to all federal, state and local government web resources and services.